International Virtual Aviation Organisation

Russian Federation and Kazakhstan MCD

 
UATT 041300Z 35003MPS CAVOK M14/M17 Q1039 R31/810255 NOSIG RMK QFE759/1012
QNH:(hPa/inHg/mmHg)1039 / 30.68 / 779
QFE:(hPa/inHg/mmHg)1012 / 29.87 / 759
Temperature-14
Dew Point-17
Visibility> 10000
WeatherCAVOK
Cloud Cover
Transition Height2710 m./9700 ft.
Transition LevelFL110
SQUAWK